createdAt,value
2018-11-21T00:01:41.704Z,29.67
2018-11-21T00:04:10.936Z,31.23
2018-11-21T00:06:41.082Z,28.40
2018-11-21T00:09:10.592Z,30.50
2018-11-21T00:11:39.847Z,30.00
2018-11-21T00:14:09.613Z,27.53
2018-11-21T00:16:38.835Z,27.83
2018-11-21T00:19:08.360Z,34.97
2018-11-21T00:21:37.684Z,27.83
2018-11-21T00:24:07.007Z,33.20
2018-11-21T00:26:36.336Z,28.73
2018-11-21T00:29:06.789Z,28.47
2018-11-21T00:31:36.017Z,36.13
2018-11-21T00:34:05.779Z,30.20
2018-11-21T00:36:35.189Z,31.83
2018-11-21T00:39:05.981Z,28.90
2018-11-21T00:41:35.209Z,30.83
2018-11-21T00:44:04.889Z,31.37
2018-11-21T00:46:34.853Z,32.87
2018-11-21T00:49:04.072Z,35.57
2018-11-21T00:51:33.482Z,31.40
2018-11-21T00:54:03.186Z,30.30
2018-11-21T00:56:32.397Z,31.10
2018-11-21T00:59:01.954Z,31.10
2018-11-21T01:01:31.167Z,32.47
2018-11-21T01:04:00.389Z,29.30
2018-11-21T01:06:30.995Z,31.20
2018-11-21T01:09:00.211Z,29.70
2018-11-21T01:11:29.460Z,34.97
2018-11-21T01:13:59.009Z,27.20
2018-11-21T01:16:28.276Z,30.10
2018-11-21T01:18:57.863Z,32.93
2018-11-21T01:21:27.464Z,30.37
2018-11-21T01:23:56.728Z,29.77
2018-11-21T01:26:26.005Z,27.60
2018-11-21T01:28:55.688Z,30.00
2018-11-21T01:31:25.040Z,30.50
2018-11-21T01:33:54.267Z,29.60
2018-11-21T01:36:23.668Z,34.63
2018-11-21T01:38:53.244Z,33.47
2018-11-21T01:41:23.357Z,27.67
2018-11-21T01:43:53.013Z,33.63
2018-11-21T01:46:22.243Z,26.67
2018-11-21T01:48:51.701Z,32.50
2018-11-21T01:51:20.943Z,28.73
2018-11-21T01:53:50.194Z,29.73
2018-11-21T01:56:19.907Z,26.37
2018-11-21T01:58:49.151Z,25.43
2018-11-21T02:01:18.803Z,28.07
2018-11-21T02:03:48.045Z,31.60
2018-11-21T02:06:17.916Z,30.30
2018-11-21T02:08:47.424Z,30.57
2018-11-21T02:11:16.998Z,28.00
2018-11-21T02:13:46.941Z,31.07
2018-11-21T02:16:16.493Z,37.93
2018-11-21T02:18:45.768Z,33.90
2018-11-21T02:21:15.083Z,34.80
2018-11-21T02:23:44.362Z,29.20
2018-11-21T02:26:13.965Z,32.63
2018-11-21T02:28:43.807Z,34.23
2018-11-21T02:31:13.160Z,32.63
2018-11-21T02:33:42.380Z,30.37
2018-11-21T02:36:11.630Z,29.50
2018-11-21T02:38:40.851Z,34.10
2018-11-21T02:41:10.131Z,29.60
2018-11-21T02:43:39.519Z,32.30
2018-11-21T02:46:09.728Z,31.20
2018-11-21T02:48:39.102Z,32.37
2018-11-21T02:51:08.551Z,30.17
2018-11-21T02:53:37.783Z,30.57
2018-11-21T02:56:07.324Z,30.63
2018-11-21T02:58:36.607Z,34.00
2018-11-21T03:01:06.024Z,30.77
2018-11-21T03:03:35.689Z,32.60
2018-11-21T03:06:04.955Z,30.87
2018-11-21T03:08:35.467Z,30.53
2018-11-21T03:11:04.711Z,30.97
2018-11-21T03:13:34.021Z,32.13
2018-11-21T03:16:04.764Z,29.00
2018-11-21T03:18:33.990Z,27.77
2018-11-21T03:21:03.801Z,28.33
2018-11-21T03:23:33.388Z,25.53
2018-11-21T03:26:02.629Z,28.60
2018-11-21T03:28:32.916Z,28.10
2018-11-21T03:31:02.142Z,27.97
2018-11-21T03:33:31.431Z,28.53
2018-11-21T03:36:01.080Z,27.90
2018-11-21T03:38:31.057Z,26.10
2018-11-21T03:41:00.297Z,28.40
2018-11-21T03:43:29.537Z,27.60
2018-11-21T03:45:59.065Z,26.13
2018-11-21T03:48:28.344Z,25.87
2018-11-21T03:50:57.585Z,25.60
2018-11-21T03:53:27.543Z,25.87
2018-11-21T03:55:56.774Z,27.37
2018-11-21T03:58:26.359Z,26.53
2018-11-21T04:00:56.124Z,27.10
2018-11-21T04:03:25.366Z,27.73
2018-11-21T04:05:54.804Z,26.07
2018-11-21T04:08:24.170Z,25.67
2018-11-21T04:10:53.833Z,26.40
2018-11-21T04:13:24.039Z,28.03
2018-11-21T04:15:53.664Z,25.13
2018-11-21T04:18:22.889Z,23.87
2018-11-21T04:20:52.225Z,23.40
2018-11-21T04:23:21.446Z,24.67
2018-11-21T04:25:51.644Z,25.10
2018-11-21T04:28:20.890Z,24.83
2018-11-21T04:30:50.371Z,23.70
2018-11-21T04:33:19.882Z,28.77
2018-11-21T04:35:49.473Z,23.90
2018-11-21T04:38:18.695Z,23.53
2018-11-21T04:40:48.328Z,23.17
2018-11-21T04:43:18.042Z,23.07
2018-11-21T04:45:47.266Z,25.83
2018-11-21T04:48:16.516Z,20.43
2018-11-21T04:50:45.765Z,24.20
2018-11-21T04:53:15.309Z,21.93
2018-11-21T04:55:44.615Z,20.73
2018-11-21T04:58:13.920Z,22.20
2018-11-21T05:00:43.326Z,24.20
2018-11-21T05:03:12.554Z,21.50
2018-11-21T05:05:41.949Z,21.17
2018-11-21T05:08:11.168Z,23.07
2018-11-21T05:10:40.540Z,21.67
2018-11-21T05:13:09.802Z,22.90
2018-11-21T05:15:39.814Z,22.73
2018-11-21T05:18:09.120Z,23.37
2018-11-21T05:20:38.752Z,19.90
2018-11-21T05:23:07.972Z,19.07
2018-11-21T05:25:37.201Z,20.77
2018-11-21T05:28:06.979Z,19.13
2018-11-21T05:30:36.222Z,20.03
2018-11-21T05:33:05.764Z,21.13
2018-11-21T05:35:35.369Z,19.87
2018-11-21T05:38:04.602Z,19.00
2018-11-21T05:40:34.098Z,17.37
2018-11-21T05:43:03.373Z,20.13
2018-11-21T05:45:32.607Z,18.53
2018-11-21T05:48:01.886Z,18.17
2018-11-21T05:50:31.411Z,16.80
2018-11-21T05:53:01.581Z,18.37
2018-11-21T05:55:30.812Z,17.97
2018-11-21T05:58:00.085Z,18.50
2018-11-21T06:00:29.302Z,17.47
2018-11-21T06:02:58.531Z,17.70
2018-11-21T06:05:27.787Z,17.90
2018-11-21T06:07:57.929Z,17.53
2018-11-21T06:10:27.165Z,16.90
2018-11-21T06:12:56.867Z,16.93
2018-11-21T06:15:26.198Z,17.47
2018-11-21T06:17:55.735Z,18.70
2018-11-21T06:20:24.998Z,15.97
2018-11-21T06:22:54.631Z,17.40
2018-11-21T06:25:24.972Z,15.50
2018-11-21T06:27:54.207Z,17.77
2018-11-21T06:30:23.453Z,18.50
2018-11-21T06:32:52.660Z,22.07
2018-11-21T06:35:22.107Z,22.30
2018-11-21T06:37:51.375Z,16.23
2018-11-21T06:40:20.612Z,17.77
2018-11-21T06:42:57.388Z,15.87
2018-11-21T06:45:27.808Z,16.17
2018-11-21T06:47:57.119Z,16.53
2018-11-21T06:50:30.025Z,18.17
2018-11-21T06:52:59.482Z,15.30
2018-11-21T06:55:29.205Z,16.27
2018-11-21T06:57:59.660Z,16.20
2018-11-21T07:00:29.916Z,15.73
2018-11-21T07:03:00.138Z,14.47
2018-11-21T07:05:29.755Z,20.60
2018-11-21T07:08:01.249Z,16.70
2018-11-21T07:10:35.644Z,14.20
2018-11-21T07:13:07.706Z,14.10
2018-11-21T07:15:34.987Z,13.67
2018-11-21T07:18:04.315Z,15.27
2018-11-21T07:20:36.341Z,15.07
2018-11-21T07:23:14.161Z,14.37
2018-11-21T07:25:43.377Z,15.20
2018-11-21T07:28:13.049Z,14.60
2018-11-21T07:30:42.161Z,16.23
2018-11-21T07:33:11.377Z,15.27
2018-11-21T07:35:41.858Z,14.30
2018-11-21T07:38:11.120Z,14.80
2018-11-21T07:40:41.160Z,14.80
2018-11-21T07:43:10.409Z,14.27
2018-11-21T07:45:39.865Z,16.10
2018-11-21T07:48:12.543Z,14.57
2018-11-21T07:50:41.761Z,12.77
2018-11-21T07:53:14.057Z,12.07
2018-11-21T07:55:43.432Z,13.80
2018-11-21T07:58:17.486Z,13.53
2018-11-21T08:01:05.066Z,14.00
2018-11-21T08:03:56.090Z,13.93
2018-11-21T08:06:44.467Z,11.30
2018-11-21T08:09:44.862Z,13.23
2018-11-21T08:12:33.265Z,13.67
2018-11-21T08:15:33.461Z,12.67
2018-11-21T08:18:22.759Z,13.40
2018-11-21T08:21:05.770Z,12.17
2018-11-21T08:23:55.722Z,18.47
2018-11-21T08:26:44.440Z,12.67
2018-11-21T08:29:13.704Z,12.20
2018-11-21T08:31:45.452Z,13.33
2018-11-21T08:34:12.382Z,11.90
2018-11-21T08:36:42.602Z,12.40
2018-11-21T08:39:14.909Z,13.90
2018-11-21T08:41:44.478Z,11.23
2018-11-21T08:44:13.881Z,12.00
2018-11-21T08:46:43.108Z,15.10
2018-11-21T08:49:13.931Z,12.53
2018-11-21T08:51:43.857Z,11.23
2018-11-21T08:54:13.241Z,13.20
2018-11-21T08:56:42.497Z,11.73
2018-11-21T08:59:12.084Z,12.97
2018-11-21T09:01:41.357Z,11.00
2018-11-21T09:04:11.518Z,10.60
2018-11-21T09:06:40.820Z,14.30
2018-11-21T09:09:10.685Z,18.20
2018-11-21T09:11:39.909Z,10.50
2018-11-21T09:14:10.323Z,13.60
2018-11-21T09:16:39.543Z,12.73
2018-11-21T09:19:12.041Z,11.03
2018-11-21T09:21:41.341Z,14.30
2018-11-21T09:24:10.582Z,9.83
2018-11-21T09:26:39.852Z,10.07
2018-11-21T09:29:09.095Z,11.10
2018-11-21T09:31:38.328Z,9.70
2018-11-21T09:34:07.957Z,10.50
2018-11-21T09:36:37.658Z,16.30
2018-11-21T09:39:09.375Z,17.30
2018-11-21T09:41:40.992Z,9.83
2018-11-21T09:44:10.215Z,10.67
2018-11-21T09:46:39.428Z,13.90
2018-11-21T09:49:09.161Z,13.00
2018-11-21T09:52:37.023Z,9.60
2018-11-21T09:55:08.457Z,9.93
2018-11-21T09:57:39.724Z,12.33
2018-11-21T10:00:47.409Z,10.07
2018-11-21T10:03:20.943Z,15.23
2018-11-21T10:05:55.510Z,10.33
2018-11-21T10:08:48.360Z,14.27
2018-11-21T10:11:19.555Z,9.70
2018-11-21T10:13:52.001Z,8.87
2018-11-21T10:16:23.318Z,9.70
2018-11-21T10:18:55.740Z,9.33
2018-11-21T10:21:28.984Z,12.07
2018-11-21T10:24:00.159Z,9.27
2018-11-21T10:26:31.492Z,13.23
2018-11-21T10:29:02.536Z,12.10
2018-11-21T10:31:33.410Z,9.73
2018-11-21T10:34:04.165Z,13.10
2018-11-21T10:36:34.942Z,13.30
2018-11-21T10:39:08.275Z,10.40
2018-11-21T10:41:39.472Z,9.20
2018-11-21T10:44:11.448Z,9.10
2018-11-21T10:46:42.239Z,9.50
2018-11-21T10:49:14.252Z,10.27
2018-11-21T10:51:45.701Z,7.60
2018-11-21T10:54:16.477Z,8.53
2018-11-21T10:56:49.631Z,11.60
2018-11-21T10:59:19.835Z,8.80
2018-11-21T11:02:14.989Z,17.23
2018-11-21T11:05:13.216Z,15.03
2018-11-21T11:08:08.607Z,13.37
2018-11-21T11:10:57.961Z,7.37
2018-11-21T11:13:49.172Z,7.50
2018-11-21T11:16:40.119Z,10.30
2018-11-21T11:19:29.957Z,9.07
2018-11-21T11:22:19.312Z,7.37
2018-11-21T11:25:18.838Z,8.03
2018-11-21T11:28:14.619Z,7.80
2018-11-21T11:30:52.360Z,13.13
2018-11-21T11:33:56.526Z,7.23
2018-11-21T11:36:58.157Z,8.00
2018-11-21T11:39:53.847Z,5.73
2018-11-21T11:42:43.400Z,9.60
2018-11-21T11:45:35.953Z,12.90
2018-11-21T11:48:25.139Z,14.17
2018-11-21T11:51:23.695Z,7.90
2018-11-21T11:54:12.312Z,12.03
2018-11-21T11:57:02.245Z,6.93
2018-11-21T12:00:10.252Z,8.10
2018-11-21T12:03:02.646Z,9.80
2018-11-21T12:05:54.903Z,8.27
2018-11-21T12:08:44.369Z,10.47
2018-11-21T12:11:45.862Z,11.33
2018-11-21T12:14:37.987Z,8.80
2018-11-21T12:17:27.647Z,8.10
2018-11-21T12:20:34.087Z,7.33
2018-11-21T12:23:24.363Z,7.50
2018-11-21T12:26:12.256Z,13.13
2018-11-21T12:29:05.140Z,16.83
2018-11-21T12:31:57.876Z,7.43
2018-11-21T12:34:48.273Z,7.03
2018-11-21T12:37:40.621Z,6.80
2018-11-21T12:40:23.788Z,11.40
2018-11-21T12:43:16.209Z,9.90
2018-11-21T12:46:05.023Z,7.10
2018-11-21T12:49:09.745Z,9.77
2018-11-21T12:51:58.101Z,10.20
2018-11-21T12:54:46.858Z,9.17
2018-11-21T12:57:51.448Z,8.13
2018-11-21T13:00:46.674Z,12.67
2018-11-21T13:03:45.904Z,8.10
2018-11-21T13:06:53.316Z,7.93
2018-11-21T13:09:56.751Z,11.07
2018-11-21T13:12:59.196Z,9.87
2018-11-21T13:15:58.063Z,7.20
2018-11-21T13:18:46.415Z,7.77
2018-11-21T13:21:41.604Z,8.30
2018-11-21T13:24:33.831Z,9.13
2018-11-21T13:27:15.355Z,6.40
2018-11-21T13:30:03.017Z,7.90
2018-11-21T13:32:52.716Z,11.13
2018-11-21T13:35:45.288Z,7.87
2018-11-21T13:38:36.005Z,8.70
2018-11-21T13:41:30.199Z,8.03
2018-11-21T13:44:19.583Z,18.83
2018-11-21T13:47:15.218Z,10.00
2018-11-21T13:50:13.826Z,9.33
2018-11-21T13:53:18.395Z,9.93
2018-11-21T13:55:51.034Z,8.40
2018-11-21T13:58:22.248Z,8.77
2018-11-21T14:00:53.139Z,13.90
2018-11-21T14:03:23.900Z,9.27
2018-11-21T14:05:54.656Z,12.03
2018-11-21T14:08:25.368Z,8.60
2018-11-21T14:10:56.465Z,8.83
2018-11-21T14:13:27.308Z,7.10
2018-11-21T14:15:58.060Z,8.00
2018-11-21T14:18:29.008Z,7.97
2018-11-21T14:21:00.777Z,7.60
2018-11-21T14:23:31.516Z,8.07
2018-11-21T14:26:02.503Z,14.03
2018-11-21T14:28:33.504Z,9.33
2018-11-21T14:31:04.340Z,11.63
2018-11-21T14:33:35.504Z,9.67
2018-11-21T14:36:06.652Z,8.10
2018-11-21T14:38:37.540Z,7.67
2018-11-21T14:41:08.969Z,10.13
2018-11-21T14:43:40.190Z,11.23
2018-11-21T14:46:11.316Z,9.33
2018-11-21T14:48:42.716Z,9.40
2018-11-21T14:51:14.055Z,8.70
2018-11-21T14:53:45.203Z,8.50
2018-11-21T14:56:16.328Z,13.53
2018-11-21T14:58:47.458Z,9.80
2018-11-21T15:01:19.002Z,8.87
2018-11-21T15:03:49.847Z,11.23
2018-11-21T15:06:20.788Z,9.90
2018-11-21T15:08:51.716Z,14.87
2018-11-21T15:11:26.284Z,18.20
2018-11-21T15:13:57.003Z,8.20
2018-11-21T15:16:28.023Z,8.77
2018-11-21T15:18:59.201Z,8.43
2018-11-21T15:21:30.016Z,9.60
2018-11-21T15:24:01.175Z,12.30
2018-11-21T15:26:33.106Z,8.40
2018-11-21T15:29:03.828Z,11.57
2018-11-21T15:31:34.902Z,15.13
2018-11-21T15:34:05.828Z,9.47
2018-11-21T15:36:36.569Z,11.93
2018-11-21T15:39:10.768Z,13.13
2018-11-21T15:41:42.576Z,21.10
2018-11-21T15:44:13.888Z,12.50
2018-11-21T15:46:45.836Z,12.73
2018-11-21T15:49:21.289Z,21.07
2018-11-21T15:51:52.039Z,10.80
2018-11-21T15:54:26.388Z,15.03
2018-11-21T15:56:55.727Z,12.50
2018-11-21T15:59:28.048Z,14.80
2018-11-21T16:01:59.160Z,11.37
2018-11-21T16:04:30.315Z,10.90
2018-11-21T16:07:01.133Z,10.50
2018-11-21T16:09:31.977Z,13.63
2018-11-21T16:12:05.573Z,10.77
2018-11-21T16:14:36.633Z,10.23
2018-11-21T16:17:07.540Z,15.60
2018-11-21T16:19:38.436Z,11.57
2018-11-21T16:22:09.318Z,13.00
2018-11-21T16:24:40.492Z,12.43
2018-11-21T16:27:11.821Z,10.07
2018-11-21T16:29:43.704Z,11.93
2018-11-21T16:32:14.484Z,10.10
2018-11-21T16:34:46.236Z,11.90
2018-11-21T16:37:16.976Z,10.70
2018-11-21T16:39:47.712Z,15.20
2018-11-21T16:42:19.216Z,11.30
2018-11-21T16:44:50.146Z,11.43
2018-11-21T16:47:21.200Z,11.10
2018-11-21T16:49:51.962Z,10.97
2018-11-21T16:52:22.672Z,19.50
2018-11-21T16:54:54.111Z,12.93
2018-11-21T16:57:25.216Z,12.43
2018-11-21T16:59:55.944Z,20.10
2018-11-21T17:02:26.863Z,10.30
2018-11-21T17:04:57.771Z,10.60
2018-11-21T17:07:29.001Z,12.53
2018-11-21T17:10:02.876Z,11.43
2018-11-21T17:12:33.800Z,10.83
2018-11-21T17:15:04.839Z,17.73
2018-11-21T17:17:36.248Z,13.30
2018-11-21T17:20:10.180Z,11.03
2018-11-21T17:22:41.345Z,11.23
2018-11-21T17:25:26.175Z,12.40
2018-11-21T17:27:57.280Z,11.60
2018-11-21T17:30:29.201Z,16.60
2018-11-21T17:33:01.550Z,13.23
2018-11-21T17:35:32.445Z,11.20
2018-11-21T17:38:05.009Z,11.10
2018-11-21T17:40:43.299Z,22.90
2018-11-21T17:43:16.412Z,14.57
2018-11-21T17:45:49.675Z,12.47
2018-11-21T17:48:20.405Z,13.03
2018-11-21T17:50:56.213Z,14.03
2018-11-21T17:53:25.201Z,13.23
2018-11-21T17:55:58.723Z,17.20
2018-11-21T17:58:30.620Z,13.40
2018-11-21T18:01:01.672Z,12.50
2018-11-21T18:03:32.496Z,15.80
2018-11-21T18:06:04.022Z,13.97
2018-11-21T18:08:38.242Z,13.50
2018-11-21T18:11:10.192Z,12.57
2018-11-21T18:13:40.908Z,14.23
2018-11-21T18:16:14.423Z,14.20
2018-11-21T18:18:45.253Z,20.17
2018-11-21T18:21:19.820Z,19.30
2018-11-21T18:23:51.009Z,15.03
2018-11-21T18:26:43.808Z,18.63
2018-11-21T18:29:14.892Z,15.03
2018-11-21T18:31:49.671Z,15.07
2018-11-21T18:34:23.679Z,16.63
2018-11-21T18:36:58.333Z,16.63
2018-11-21T18:39:33.472Z,18.20
2018-11-21T18:42:05.851Z,15.37
2018-11-21T18:44:39.398Z,16.27
2018-11-21T18:47:10.123Z,16.13
2018-11-21T18:49:41.007Z,22.60
2018-11-21T18:52:11.723Z,15.20
2018-11-21T18:54:45.509Z,15.87
2018-11-21T18:57:58.391Z,17.60
2018-11-21T19:00:32.736Z,15.03
2018-11-21T19:03:06.235Z,15.70
2018-11-21T19:05:40.928Z,15.63
2018-11-21T19:08:11.890Z,15.57
2018-11-21T19:10:46.348Z,16.43
2018-11-21T19:13:18.077Z,16.30
2018-11-21T19:15:52.316Z,14.93
2018-11-21T19:18:23.567Z,16.23
2018-11-21T19:21:03.009Z,16.00
2018-11-21T19:23:35.390Z,17.80
2018-11-21T19:26:08.918Z,17.43
2018-11-21T19:28:38.839Z,17.30
2018-11-21T19:31:10.914Z,17.77
2018-11-21T19:33:41.771Z,18.30
2018-11-21T19:36:13.504Z,17.93
2018-11-21T19:38:44.623Z,16.63
2018-11-21T19:41:15.377Z,19.80
2018-11-21T19:43:50.167Z,18.97
2018-11-21T19:46:24.505Z,23.13
2018-11-21T19:48:55.864Z,20.20
2018-11-21T19:51:29.260Z,18.30
2018-11-21T19:54:00.812Z,20.07
2018-11-21T19:56:32.564Z,19.13
2018-11-21T19:59:03.308Z,22.20
2018-11-21T20:01:34.447Z,22.50
2018-11-21T20:04:05.405Z,25.00
2018-11-21T20:06:36.127Z,24.73
2018-11-21T20:09:11.663Z,24.10
2018-11-21T20:11:42.799Z,27.97
2018-11-21T20:14:13.539Z,24.73
2018-11-21T20:16:45.240Z,26.60
2018-11-21T20:19:17.348Z,25.17
2018-11-21T20:21:49.102Z,26.27
2018-11-21T20:24:21.301Z,23.93
2018-11-21T20:26:52.123Z,27.50
2018-11-21T20:29:22.908Z,25.87
2018-11-21T20:31:55.769Z,30.20
2018-11-21T20:34:26.644Z,29.60
2018-11-21T20:36:57.582Z,30.20
2018-11-21T20:39:28.536Z,27.77
2018-11-21T20:41:59.615Z,27.43
2018-11-21T20:44:30.740Z,30.20
2018-11-21T20:47:02.040Z,29.80
2018-11-21T20:49:32.952Z,30.23
2018-11-21T20:52:22.547Z,29.73
2018-11-21T20:54:53.274Z,34.90
2018-11-21T20:57:24.000Z,30.10
2018-11-21T20:59:54.765Z,31.27
2018-11-21T21:02:25.575Z,31.97
2018-11-21T21:04:56.817Z,37.93
2018-11-21T21:07:28.226Z,32.23
2018-11-21T21:09:58.968Z,37.73
2018-11-21T21:12:29.809Z,33.67
2018-11-21T21:15:00.791Z,29.77
2018-11-21T21:17:31.891Z,29.67
2018-11-21T21:20:03.012Z,42.43
2018-11-21T21:22:34.030Z,36.00
2018-11-21T21:25:25.177Z,33.13
2018-11-21T21:27:55.924Z,32.33
2018-11-21T21:30:28.519Z,40.17
2018-11-21T21:32:59.268Z,39.00
2018-11-21T21:35:31.480Z,34.30
2018-11-21T21:38:02.200Z,33.83
2018-11-21T21:40:32.915Z,36.93
2018-11-21T21:43:04.374Z,36.00
2018-11-21T21:45:35.168Z,41.80
2018-11-21T21:48:06.367Z,36.77
2018-11-21T21:50:37.975Z,38.00
2018-11-21T21:53:08.747Z,36.00
2018-11-21T21:55:39.574Z,37.07
2018-11-21T21:58:10.940Z,36.23
2018-11-21T22:00:42.092Z,37.77
2018-11-21T22:03:12.924Z,40.27
2018-11-21T22:05:44.055Z,37.90
2018-11-21T22:08:17.016Z,33.27
2018-11-21T22:10:49.597Z,40.70
2018-11-21T22:13:20.558Z,33.87
2018-11-21T22:15:51.276Z,37.53
2018-11-21T22:18:22.552Z,37.63
2018-11-21T22:20:53.764Z,35.50
2018-11-21T22:23:24.960Z,34.90
2018-11-21T22:25:57.846Z,36.27
2018-11-21T22:28:28.584Z,40.03
2018-11-21T22:30:59.388Z,36.10
2018-11-21T22:33:30.308Z,36.57
2018-11-21T22:36:02.845Z,33.77
2018-11-21T22:38:32.142Z,34.73
2018-11-21T22:41:03.307Z,32.60
2018-11-21T22:43:34.033Z,32.70
2018-11-21T22:46:05.176Z,37.80
2018-11-21T22:48:36.278Z,35.10
2018-11-21T22:51:07.060Z,34.20
2018-11-21T22:53:37.901Z,35.87
2018-11-21T22:56:08.653Z,35.43
2018-11-21T22:58:39.363Z,34.10
2018-11-21T23:01:10.639Z,33.93
2018-11-21T23:03:41.620Z,32.80
2018-11-21T23:06:12.347Z,33.20
2018-11-21T23:08:48.167Z,32.97
2018-11-21T23:11:13.819Z,32.30
2018-11-21T23:13:45.025Z,32.00
2018-11-21T23:16:15.940Z,30.90
2018-11-21T23:18:47.625Z,30.53
2018-11-21T23:21:18.363Z,33.57
2018-11-21T23:23:50.603Z,29.53
2018-11-21T23:26:21.361Z,24.97
2018-11-21T23:28:52.492Z,24.60
2018-11-21T23:31:23.355Z,19.87
2018-11-21T23:33:54.420Z,20.67
2018-11-21T23:36:25.153Z,23.80
2018-11-21T23:38:55.889Z,22.60
2018-11-21T23:41:26.745Z,21.33
2018-11-21T23:43:57.469Z,19.70
2018-11-21T23:46:28.471Z,19.70
2018-11-21T23:48:59.646Z,22.30
2018-11-21T23:51:49.242Z,22.70
2018-11-21T23:54:19.982Z,22.63
2018-11-21T23:57:15.562Z,25.87
2018-11-21T23:59:21.696Z,29.83
